ADDS METAR Data INFO
IDs: Format: Raw Decoded Include TAF

Data at: 1934 UTC 16 Aug 2017

K46U 161900Z AUTO 26005KT 9SM CLR 23/04 A3018 RMK A01
K46U 161840Z AUTO VRB04KT 10SM CLR 22/06 A3018 RMK A01
K46U 161820Z AUTO 00000KT 9SM CLR 21/07 A3019 RMK A01
K46U 161800Z AUTO 31004KT 9SM CLR 21/07 A3019 RMK A01
K46U 161740Z AUTO 00000KT 10SM CLR 20/09 A3020 RMK A01
K46U 161720Z AUTO 00000KT 10SM CLR 18/07 A3021 RMK A01
K46U 161700Z AUTO 23003KT 10SM CLR 17/08 A3021 RMK A01
K46U 161640Z AUTO 00000KT 10SM CLR 17/08 A3021 RMK A01
K46U 161620Z AUTO 00000KT 10SM CLR 16/08 A3021 RMK A01
K46U 161600Z AUTO 00000G11KT 10SM CLR 15/07 A3021 RMK A01
K46U 161540Z AUTO VRB03KT 10SM CLR 14/08 A3022 RMK A01
K46U 161520Z AUTO VRB03KT 10SM CLR 13/07 A3022 RMK A01
K46U 161500Z AUTO VRB03G10KT 10SM CLR 12/06 A3022 RMK A01
K46U 161440Z AUTO 13007KT 10SM CLR 11/06 A3021 RMK A01
K46U 161420Z AUTO 13007KT 10SM CLR 10/06 A3021 RMK A01
K46U 161400Z AUTO 11009KT 10SM CLR 10/06 A3021 RMK A01
K46U 161340Z AUTO 13012KT 10SM CLR 09/05 A3021 RMK A01
K46U 161320Z AUTO 12008KT 10SM CLR 08/05 A3020 RMK A01
K46U 161300Z AUTO 17004G10KT 10SM CLR 08/05 A3020 RMK A01
K46U 161240Z AUTO VRB06KT 10SM CLR 08/05 A3020 RMK A01
K46U 161220Z AUTO 12006KT 10SM CLR 08/06 A3018 RMK A01
K46U 161200Z AUTO 15007G13KT 130V200 10SM CLR 09/05 A3018 RMK A01
K46U 161140Z AUTO 12009KT 10SM CLR 09/06 A3018 RMK A01
K46U 161120Z AUTO 12007KT 10SM CLR 09/06 A3017 RMK A01
K46U 161100Z AUTO 13006KT 10SM CLR 09/06 A3017 RMK A01
K46U 161040Z AUTO 12007G12KT 10SM CLR 09/06 A3017 RMK A01
K46U 161020Z AUTO 12008KT 10SM CLR 09/06 A3016 RMK A01
K46U 161000Z AUTO 12009KT 10SM CLR 09/07 A3015 RMK A01
K46U 160940Z AUTO 12007KT 10SM CLR 10/07 A3015 RMK A01
K46U 160920Z AUTO 12008KT 10SM CLR 10/07 A3015 RMK A01
K46U 160900Z AUTO 10005KT 10SM CLR 10/07 A3014 RMK A01
K46U 160840Z AUTO 12008KT 10SM CLR 11/07 A3014 RMK A01
K46U 160820Z AUTO 12008KT 10SM CLR 11/07 A3013 RMK A01
K46U 160800Z AUTO 11004KT 10SM CLR 11/07 A3013 RMK A01
K46U 160740Z AUTO 11005KT 10SM CLR 10/08 A3013 RMK A01
K46U 160720Z AUTO 00000KT 10SM CLR 11/08 A3013 RMK A01
K46U 160700Z AUTO 10003KT 10SM CLR 12/08 A3013 RMK A01
K46U 160640Z AUTO 00000KT 10SM CLR 12/07 A3013 RMK A01
K46U 160620Z AUTO 00000KT 10SM CLR 12/08 A3012 RMK A01
K46U 160600Z AUTO 00000KT 10SM CLR 13/08 A3012 RMK A01
K46U 160540Z AUTO 12003KT 10SM CLR 13/08 A3011 RMK A01
K46U 160520Z AUTO 10005KT 10SM CLR 13/08 A3011 RMK A01
K46U 160500Z AUTO 12004KT 10SM CLR 13/08 A3011 RMK A01
K46U 160440Z AUTO 00000KT 10SM CLR 12/08 A3011 RMK A01
K46U 160420Z AUTO 00000KT 10SM CLR 13/08 A3010 RMK A01
K46U 160400Z AUTO 13006KT 10SM CLR 14/08 A3010 RMK A01
K46U 160340Z AUTO 12004KT 10SM CLR 14/09 A3009 RMK A01
K46U 160320Z AUTO 00000KT 10SM CLR 14/09 A3009 RMK A01
K46U 160300Z AUTO 00000KT 10SM CLR 15/09 A3008 RMK A01
K46U 160240Z AUTO 00000KT 10SM CLR 16/09 A3006 RMK A01
K46U 160220Z AUTO 00000KT 10SM CLR 17/09 A3005 RMK A01
K46U 160200Z AUTO 00000KT 10SM CLR 19/10 A3004 RMK A01
K46U 160140Z AUTO 18003KT 10SM CLR 20/08 A3003 RMK A01
K46U 160120Z AUTO VRB04KT 9SM CLR 21/08 A3003 RMK A01
K46U 160100Z AUTO VRB03KT 9SM CLR 21/08 A3003 RMK A01
K46U 160040Z AUTO 00000G11KT 9SM CLR 21/08 A3003 RMK A01
K46U 160020Z AUTO 00000KT 9SM CLR 22/07 A3003 RMK A01
K46U 160000Z AUTO 00000KT 9SM CLR 22/06 A3003 RMK A01
K46U 152340Z AUTO 00000KT 9SM CLR 21/06 A3003 RMK A01
K46U 152320Z AUTO 00000KT 9SM CLR 20/06 A3003 RMK A01
K46U 152300Z AUTO 00000KT 10SM CLR 20/07 A3003 RMK A01
K46U 152240Z AUTO 00000KT 9SM CLR 20/07 A3003 RMK A01
K46U 152220Z AUTO 23005KT 8SM CLR 20/09 A3003 RMK A01
K46U 152200Z AUTO VRB04KT 9SM CLR 20/08 A3003 RMK A01
K46U 152140Z AUTO 17005KT 9SM CLR 21/07 A3003 RMK A01
K46U 152120Z AUTO VRB05G10KT 9SM CLR 20/07 A3003 RMK A01
K46U 152100Z AUTO 23005KT 9SM CLR 21/07 A3004 RMK A01
K46U 152040Z AUTO 00000KT 10SM CLR 21/09 A3004 RMK A01
K46U 152020Z AUTO 00000KT 10SM CLR 20/09 A3004 RMK A01
K46U 152000Z AUTO 29005KT 9SM CLR 20/09 A3004 RMK A01
K46U 151940Z AUTO VRB04KT 10SM CLR 20/08 A3004 RMK A01
K46U 151920Z AUTO VRB04KT 10SM CLR 19/08 A3005 RMK A01
K46U 151900Z AUTO VRB03KT 9SM CLR 19/08 A3005 RMK A01
K46U 151840Z AUTO VRB04KT 10SM CLR 19/08 A3005 RMK A01
K46U 151820Z AUTO 00000KT 10SM CLR 18/08 A3006 RMK A01
K46U 151800Z AUTO 00000KT 10SM CLR 18/08 A3007 RMK A01
K46U 151740Z AUTO 00000KT 10SM CLR 18/09 A3007 RMK A01
K46U 151720Z AUTO 00000KT 10SM CLR 17/09 A3007 RMK A01
K46U 151700Z AUTO 00000KT 10SM CLR 16/10 A3007 RMK A01
K46U 151640Z AUTO 00000KT 10SM CLR 15/09 A3006 RMK A01
K46U 151620Z AUTO 00000KT 10SM CLR 15/10 A3007 RMK A01
K46U 151600Z AUTO 00000KT 10SM CLR 14/10 A3007 RMK A01
K46U 151540Z AUTO 00000KT 10SM CLR 13/10 A3007 RMK A01
K46U 151520Z AUTO 00000KT 10SM CLR 13/10 A3007 RMK A01
K46U 151500Z AUTO 18004KT 10SM CLR 13/11 A3007 RMK A01
K46U 151440Z AUTO 00000KT 10SM FEW019 12/10 A3007 RMK A01
K46U 151420Z AUTO 00000KT 10SM FEW008 SCT019 11/10 A3007 RMK A01
K46U 151400Z AUTO 13004KT 10SM FEW019 SCT095 11/09 A3006 RMK A01
K46U 151340Z AUTO 11004KT 10SM FEW012 SCT019 BKN095 10/09 A3005 RMK A01
K46U 151320Z AUTO 11004KT 10SM SCT012 BKN095 10/09 A3005 RMK A01
K46U 151300Z AUTO 12003KT 10SM FEW016 10/09 A3005 RMK A01
K46U 151240Z AUTO 12009KT 10SM FEW120 10/09 A3004 RMK A01
K46U 151220Z AUTO 12005KT 10SM FEW013 FEW045 BKN120 11/10 A3004 RMK A01
K46U 151200Z AUTO 11006KT 10SM BKN013 BKN045 11/10 A3003 RMK A01
K46U 151140Z AUTO 12006KT 10SM SCT045 SCT090 SCT120 11/10 A3003 RMK A01
K46U 151120Z AUTO 12006KT 10SM SCT044 BKN090 BKN120 11/10 A3003 RMK A01
K46U 151100Z AUTO 12005KT 10SM OVC043 11/10 A3003 RMK A01
K46U 151040Z AUTO 13003KT 10SM BKN042 BKN100 OVC120 11/10 A3004 RMK A01
K46U 151020Z AUTO 00000KT 10SM FEW080 OVC110 11/10 A3003 RMK A01
K46U 151000Z AUTO 00000KT 10SM FEW080 OVC110 11/10 A3004 RMK A01
K46U 150940Z AUTO 10006KT 10SM OVC110 11/10 A3004 RMK A01
K46U 150920Z AUTO 11007KT 10SM SCT039 OVC110 11/10 A3004 RMK A01
K46U 150900Z AUTO 00000KT 10SM OVC038 11/10 A3003 RMK A01
K46U 150840Z AUTO 10003KT 10SM BKN036 OVC095 11/10 A3004 RMK A01
K46U 150820Z AUTO 10004KT 10SM FEW037 OVC095 11/10 A3003 RMK A01
K46U 150800Z AUTO 00000KT 10SM BKN038 BKN080 OVC095 12/10 A3004 RMK A01
K46U 150740Z AUTO 00000KT 10SM SCT080 OVC100 12/10 A3004 RMK A01